Time,TemperatureF,DewpointF,PressureIn,WindDirection,WindDirectionDegrees,WindSpeedMPH,WindSpeedGustMPH,Humidity,HourlyPrecipIn,Conditions,Clouds,dailyrainin,SoftwareType,DateUTC
2013-04-05 00:01:00,44.9,40.4,30.14,North,0,0.0,0.0,84,0.00,,,0.02,WUHU216HW,2013-04-05 05:01:00,
2013-04-05 00:06:00,44.9,40.4,30.14,North,0,0.0,0.0,84,0.00,,,0.02,WUHU216HW,2013-04-05 05:06:00,
2013-04-05 00:53:00,42.8,38.2,30.16,North,0,0.0,0.0,84,0.00,,,0.00,WUHU216HW,2013-04-05 05:53:00,
2013-04-05 00:58:00,42.4,37.9,30.16,North,0,0.0,0.0,84,0.00,,,0.00,WUHU216HW,2013-04-05 05:58:00,
2013-04-05 01:03:00,42.0,37.5,30.16,North,0,0.0,0.0,84,0.00,,,0.00,WUHU216HW,2013-04-05 06:03:00,
2013-04-05 01:08:00,41.9,37.3,30.16,North,0,0.0,0.0,84,0.00,,,0.00,WUHU216HW,2013-04-05 06:08:00,
2013-04-05 01:13:00,41.9,37.3,30.16,North,0,0.0,0.0,84,0.00,,,0.00,WUHU216HW,2013-04-05 06:13:00,
2013-04-05 01:18:00,42.0,37.8,30.17,North,0,0.0,0.0,85,0.00,,,0.00,WUHU216HW,2013-04-05 06:18:00,
2013-04-05 01:23:00,41.9,37.6,30.17,North,0,0.0,0.0,85,0.00,,,0.00,WUHU216HW,2013-04-05 06:23:00,
2013-04-05 01:28:00,41.7,37.4,30.17,North,0,0.0,0.0,86,0.00,,,0.00,WUHU216HW,2013-04-05 06:28:00,
2013-04-05 01:33:00,41.9,37.9,30.17,North,0,0.0,0.0,86,0.00,,,0.00,WUHU216HW,2013-04-05 06:33:00,
2013-04-05 01:38:00,41.9,37.9,30.18,North,0,0.0,0.0,86,0.00,,,0.00,WUHU216HW,2013-04-05 06:38:00,
2013-04-05 01:43:00,41.9,37.9,30.18,North,0,0.0,0.0,86,0.00,,,0.00,WUHU216HW,2013-04-05 06:43:00,
2013-04-05 01:48:00,41.7,37.7,30.17,North,0,0.0,0.0,86,0.00,,,0.00,WUHU216HW,2013-04-05 06:48:00,
2013-04-05 01:53:00,41.5,37.6,30.17,North,0,0.0,0.0,86,0.00,,,0.00,WUHU216HW,2013-04-05 06:53:00,
2013-04-05 01:58:00,41.1,37.2,30.17,North,0,0.0,0.0,86,0.00,,,0.00,WUHU216HW,2013-04-05 06:58:00,
2013-04-05 02:03:00,41.0,37.0,30.17,North,0,0.0,0.0,86,0.00,,,0.00,WUHU216HW,2013-04-05 07:03:00,
2013-04-05 02:08:00,40.6,36.7,30.17,North,0,0.0,0.0,86,0.00,,,0.00,WUHU216HW,2013-04-05 07:08:00,
2013-04-05 02:13:00,40.2,36.3,30.18,North,0,0.0,0.0,86,0.00,,,0.00,WUHU216HW,2013-04-05 07:13:00,
2013-04-05 02:18:00,40.1,36.2,30.18,North,0,0.0,0.0,86,0.00,,,0.00,WUHU216HW,2013-04-05 07:18:00,
2013-04-05 02:23:00,40.1,36.2,30.18,North,0,0.0,0.0,86,0.00,,,0.00,WUHU216HW,2013-04-05 07:23:00,
2013-04-05 02:28:00,40.1,36.2,30.18,North,0,0.0,0.0,86,0.00,,,0.00,WUHU216HW,2013-04-05 07:28:00,
2013-04-05 02:38:00,39.0,35.1,30.17,North,0,0.0,0.0,86,0.00,,,0.00,WUHU216HW,2013-04-05 07:38:00,
2013-04-05 02:43:00,39.0,35.1,30.17,North,0,0.0,0.0,86,0.00,,,0.00,WUHU216HW,2013-04-05 07:43:00,
2013-04-05 02:48:00,39.0,35.1,30.17,North,0,0.0,0.0,86,0.00,,,0.00,WUHU216HW,2013-04-05 07:48:00,
2013-04-05 02:53:00,38.8,34.9,30.17,North,0,0.0,0.0,86,0.00,,,0.00,WUHU216HW,2013-04-05 07:53:00,
2013-04-05 02:58:00,38.8,34.9,30.17,North,0,0.0,0.0,87,0.00,,,0.00,WUHU216HW,2013-04-05 07:58:00,
2013-04-05 03:03:00,38.8,34.9,30.16,North,0,0.0,0.0,87,0.00,,,0.00,WUHU216HW,2013-04-05 08:03:00,
2013-04-05 03:08:00,39.2,35.6,30.16,North,0,0.0,0.0,87,0.00,,,0.00,WUHU216HW,2013-04-05 08:08:00,
2013-04-05 03:13:00,39.3,35.8,30.16,North,0,0.0,0.0,87,0.00,,,0.00,WUHU216HW,2013-04-05 08:13:00,
2013-04-05 03:18:00,39.3,35.8,30.16,North,0,0.0,0.0,87,0.00,,,0.00,WUHU216HW,2013-04-05 08:18:00,
2013-04-05 03:23:00,39.3,35.8,30.16,North,0,0.0,0.0,87,0.00,,,0.00,WUHU216HW,2013-04-05 08:23:00,
2013-04-05 03:28:00,39.2,35.6,30.16,North,0,0.0,0.0,87,0.00,,,0.00,WUHU216HW,2013-04-05 08:28:00,
2013-04-05 03:33:00,39.2,35.6,30.16,North,0,0.0,0.0,87,0.00,,,0.00,WUHU216HW,2013-04-05 08:33:00,
2013-04-05 03:51:00,38.1,34.5,30.16,North,0,0.0,0.0,87,0.00,,,0.00,WUHU216HW,2013-04-05 08:51:00,
2013-04-05 03:56:00,37.9,34.3,30.16,North,0,0.0,0.0,87,0.00,,,0.00,WUHU216HW,2013-04-05 08:56:00,
2013-04-05 04:01:00,37.5,34.0,30.16,North,0,0.0,0.0,87,0.00,,,0.00,WUHU216HW,2013-04-05 09:01:00,
2013-04-05 04:06:00,37.2,33.6,30.16,North,0,0.0,0.0,87,0.00,,,0.00,WUHU216HW,2013-04-05 09:06:00,
2013-04-05 04:11:00,37.2,33.6,30.16,North,0,0.0,0.0,87,0.00,,,0.00,WUHU216HW,2013-04-05 09:11:00,
2013-04-05 04:16:00,37.0,33.4,30.16,North,0,0.0,0.0,87,0.00,,,0.00,WUHU216HW,2013-04-05 09:16:00,
2013-04-05 04:21:00,37.0,33.4,30.16,North,0,0.0,0.0,87,0.00,,,0.00,WUHU216HW,2013-04-05 09:21:00,
2013-04-05 04:26:00,36.6,33.1,30.16,North,0,0.0,0.0,87,0.00,,,0.00,WUHU216HW,2013-04-05 09:26:00,
2013-04-05 04:31:00,36.5,32.9,30.17,North,0,0.0,0.0,87,0.00,,,0.00,WUHU216HW,2013-04-05 09:31:00,
2013-04-05 04:36:00,36.3,32.7,30.17,North,0,0.0,0.0,87,0.00,,,0.00,WUHU216HW,2013-04-05 09:36:00,
2013-04-05 04:41:00,36.3,32.7,30.16,North,0,0.0,0.0,87,0.00,,,0.00,WUHU216HW,2013-04-05 09:41:00,
2013-04-05 04:47:00,36.3,32.7,30.16,North,0,0.0,0.0,87,0.00,,,0.00,WUHU216HW,2013-04-05 09:47:00,
2013-04-05 04:52:00,36.3,32.7,30.16,North,0,0.0,0.0,87,0.00,,,0.00,WUHU216HW,2013-04-05 09:52:00,
2013-04-05 04:57:00,36.1,32.5,30.16,North,0,0.0,0.0,87,0.00,,,0.00,WUHU216HW,2013-04-05 09:57:00,
2013-04-05 05:02:00,36.1,32.5,30.16,North,0,0.0,0.0,87,0.00,,,0.00,WUHU216HW,2013-04-05 10:02:00,
2013-04-05 05:07:00,36.1,32.5,30.16,North,0,0.0,0.0,87,0.00,,,0.00,WUHU216HW,2013-04-05 10:07:00,
2013-04-05 05:12:00,36.1,32.5,30.16,North,0,0.0,0.0,87,0.00,,,0.00,WUHU216HW,2013-04-05 10:12:00,
2013-04-05 05:17:00,35.9,32.3,30.16,North,0,0.0,0.0,87,0.00,,,0.00,WUHU216HW,2013-04-05 10:17:00,
2013-04-05 05:22:00,35.9,32.3,30.16,North,0,0.0,0.0,87,0.00,,,0.00,WUHU216HW,2013-04-05 10:22:00,
2013-04-05 05:27:00,35.7,32.2,30.16,North,0,0.0,0.0,87,0.00,,,0.00,WUHU216HW,2013-04-05 10:27:00,
2013-04-05 05:32:00,35.7,32.2,30.16,North,0,0.0,0.0,87,0.00,,,0.00,WUHU216HW,2013-04-05 10:32:00,
2013-04-05 05:37:00,35.6,32.3,30.16,North,0,0.0,0.0,88,0.00,,,0.00,WUHU216HW,2013-04-05 10:37:00,
2013-04-05 05:42:00,35.6,32.3,30.16,North,0,0.0,0.0,88,0.00,,,0.00,WUHU216HW,2013-04-05 10:42:00,
2013-04-05 05:47:00,35.4,32.1,30.17,North,0,0.0,0.0,88,0.00,,,0.00,WUHU216HW,2013-04-05 10:47:00,
2013-04-05 05:52:00,35.4,32.1,30.16,North,0,0.0,0.0,88,0.00,,,0.00,WUHU216HW,2013-04-05 10:52:00,
2013-04-05 05:57:00,35.4,32.1,30.17,North,0,0.0,0.0,88,0.00,,,0.00,WUHU216HW,2013-04-05 10:57:00,
2013-04-05 06:02:00,35.2,31.9,30.17,North,0,0.0,0.0,88,0.00,,,0.00,WUHU216HW,2013-04-05 11:02:00,
2013-04-05 06:07:00,35.2,31.9,30.17,North,0,0.0,0.0,88,0.00,,,0.00,WUHU216HW,2013-04-05 11:07:00,
2013-04-05 06:12:00,35.2,31.9,30.17,North,0,0.0,0.0,88,0.00,,,0.00,WUHU216HW,2013-04-05 11:12:00,
2013-04-05 06:17:00,35.2,31.9,30.17,North,0,0.0,0.0,88,0.00,,,0.00,WUHU216HW,2013-04-05 11:17:00,
2013-04-05 06:22:00,35.2,31.9,30.18,North,0,0.0,0.0,88,0.00,,,0.00,WUHU216HW,2013-04-05 11:22:00,
2013-04-05 06:27:00,35.2,31.9,30.18,North,0,0.0,0.0,88,0.00,,,0.00,WUHU216HW,2013-04-05 11:27:00,
2013-04-05 06:32:00,35.2,31.9,30.18,North,0,0.0,0.0,88,0.00,,,0.00,WUHU216HW,2013-04-05 11:32:00,
2013-04-05 06:37:00,35.0,31.7,30.18,North,0,0.0,0.0,88,0.00,,,0.00,WUHU216HW,2013-04-05 11:37:00,
2013-04-05 06:43:00,34.8,31.6,30.18,North,0,0.0,0.0,88,0.00,,,0.00,WUHU216HW,2013-04-05 11:43:00,
2013-04-05 06:48:00,34.8,31.6,30.18,North,0,0.0,0.0,88,0.00,,,0.00,WUHU216HW,2013-04-05 11:48:00,
2013-04-05 06:54:00,34.7,31.4,30.18,North,0,0.0,0.0,88,0.00,,,0.00,WUHU216HW,2013-04-05 11:54:00,
2013-04-05 06:59:00,34.8,31.6,30.17,North,0,0.0,0.0,88,0.00,,,0.00,WUHU216HW,2013-04-05 11:59:00,
2013-04-05 07:04:00,34.8,31.6,30.17,North,0,0.0,0.0,88,0.00,,,0.00,WUHU216HW,2013-04-05 12:04:00,
2013-04-05 07:59:00,35.2,31.9,30.20,North,0,0.0,0.0,88,0.00,,,0.00,WUHU216HW,2013-04-05 12:59:00,
2013-04-05 08:04:00,35.9,32.6,30.20,North,0,0.0,0.0,88,0.00,,,0.00,WUHU216HW,2013-04-05 13:04:00,
2013-04-05 08:09:00,36.6,33.4,30.20,North,0,0.0,0.0,88,0.00,,,0.00,WUHU216HW,2013-04-05 13:09:00,
2013-04-05 08:14:00,37.2,34.2,30.20,North,0,0.0,0.0,89,0.00,,,0.00,WUHU216HW,2013-04-05 13:14:00,
2013-04-05 08:19:00,38.4,35.4,30.21,North,0,0.0,0.0,89,0.00,,,0.00,WUHU216HW,2013-04-05 13:19:00,
2013-04-05 08:24:00,39.5,36.5,30.20,North,0,0.0,0.0,89,0.00,,,0.00,WUHU216HW,2013-04-05 13:24:00,
2013-04-05 08:29:00,40.6,37.6,30.20,North,0,0.0,0.0,89,0.00,,,0.00,WUHU216HW,2013-04-05 13:29:00,
2013-04-05 08:34:00,40.8,37.8,30.20,North,0,0.0,0.0,89,0.00,,,0.00,WUHU216HW,2013-04-05 13:34:00,
2013-04-05 08:39:00,41.1,38.1,30.19,North,0,0.0,0.0,89,0.00,,,0.00,WUHU216HW,2013-04-05 13:39:00,
2013-04-05 08:44:00,41.9,39.2,30.20,North,0,0.0,0.0,90,0.00,,,0.00,WUHU216HW,2013-04-05 13:44:00,
2013-04-05 08:50:00,42.2,39.5,30.20,North,0,0.0,0.0,90,0.00,,,0.00,WUHU216HW,2013-04-05 13:50:00,
2013-04-05 08:55:00,42.8,40.1,30.20,North,0,0.0,0.0,90,0.00,,,0.00,WUHU216HW,2013-04-05 13:55:00,
2013-04-05 09:00:00,42.9,40.2,30.19,North,0,0.0,0.0,90,0.00,,,0.00,WUHU216HW,2013-04-05 14:00:00,
2013-04-05 09:05:00,43.1,40.4,30.20,North,0,0.0,0.0,90,0.00,,,0.00,WUHU216HW,2013-04-05 14:05:00,
2013-04-05 09:10:00,43.8,41.1,30.20,North,0,0.0,0.0,90,0.00,,,0.00,WUHU216HW,2013-04-05 14:10:00,
2013-04-05 09:15:00,44.4,41.7,30.21,North,0,0.0,0.0,90,0.00,,,0.00,WUHU216HW,2013-04-05 14:15:00,
2013-04-05 09:20:00,45.3,42.6,30.21,North,0,0.0,0.0,90,0.00,,,0.00,WUHU216HW,2013-04-05 14:20:00,
2013-04-05 09:25:00,45.8,43.1,30.21,North,0,0.0,0.0,90,0.00,,,0.00,WUHU216HW,2013-04-05 14:25:00,
2013-04-05 09:30:00,45.8,43.1,30.21,North,0,0.0,0.0,90,0.00,,,0.00,WUHU216HW,2013-04-05 14:30:00,
2013-04-05 09:46:00,49.2,44.2,30.21,North,0,0.0,0.0,83,0.00,,,0.00,WUHU216HW,2013-04-05 14:46:00,
2013-04-05 09:51:00,50.3,44.7,30.21,North,0,0.0,0.0,81,0.00,,,0.00,WUHU216HW,2013-04-05 14:51:00,
2013-04-05 09:56:00,51.0,44.8,30.21,North,0,0.0,0.0,78,0.00,,,0.00,WUHU216HW,2013-04-05 14:56:00,
2013-04-05 10:01:00,51.9,45.0,30.21,North,0,0.0,0.0,77,0.00,,,0.00,WUHU216HW,2013-04-05 15:01:00,
2013-04-05 10:07:00,52.8,46.2,30.21,North,0,0.0,0.0,78,0.00,,,0.00,WUHU216HW,2013-04-05 15:07:00,
2013-04-05 10:12:00,53.9,46.5,30.21,North,0,0.0,0.0,76,0.00,,,0.00,WUHU216HW,2013-04-05 15:12:00,
2013-04-05 10:17:00,54.1,44.6,30.21,North,0,0.0,0.0,70,0.00,,,0.00,WUHU216HW,2013-04-05 15:17:00,
2013-04-05 10:22:00,54.6,44.7,30.21,North,0,0.0,0.0,69,0.00,,,0.00,WUHU216HW,2013-04-05 15:22:00,
2013-04-05 10:27:00,55.2,43.6,30.20,North,0,0.0,0.0,65,0.00,,,0.00,WUHU216HW,2013-04-05 15:27:00,
2013-04-05 10:32:00,56.1,44.8,30.21,North,0,0.0,0.0,66,0.00,,,0.00,WUHU216HW,2013-04-05 15:32:00,
2013-04-05 10:37:00,56.4,45.6,30.21,North,0,0.0,0.0,67,0.00,,,0.00,WUHU216HW,2013-04-05 15:37:00,
2013-04-05 10:42:00,56.4,45.6,30.21,North,0,0.0,0.0,67,0.00,,,0.00,WUHU216HW,2013-04-05 15:42:00,
2013-04-05 10:59:00,59.7,45.3,30.20,North,0,0.0,0.0,59,0.00,,,0.00,WUHU216HW,2013-04-05 15:59:00,
2013-04-05 11:04:00,60.4,44.1,30.20,North,0,0.0,0.0,57,0.00,,,0.00,WUHU216HW,2013-04-05 16:04:00,
2013-04-05 11:09:00,60.0,44.3,30.20,North,0,0.0,0.0,56,0.00,,,0.00,WUHU216HW,2013-04-05 16:09:00,
2013-04-05 11:14:00,60.4,45.1,30.20,North,0,0.0,0.0,57,0.00,,,0.00,WUHU216HW,2013-04-05 16:14:00,
2013-04-05 11:20:00,60.4,45.1,30.19,North,0,0.0,0.0,57,0.00,,,0.00,WUHU216HW,2013-04-05 16:20:00,
2013-04-05 11:25:00,60.9,44.1,30.19,North,0,0.0,0.0,55,0.00,,,0.00,WUHU216HW,2013-04-05 16:25:00,
2013-04-05 11:30:00,61.8,46.4,30.19,North,0,0.0,0.0,57,0.00,,,0.00,WUHU216HW,2013-04-05 16:30:00,
2013-04-05 11:35:00,62.7,45.3,30.19,North,0,0.0,0.0,53,0.00,,,0.00,WUHU216HW,2013-04-05 16:35:00,
2013-04-05 11:40:00,63.1,46.1,30.19,North,0,0.0,0.0,54,0.00,,,0.00,WUHU216HW,2013-04-05 16:40:00,
2013-04-05 11:45:00,63.6,45.1,30.19,North,0,0.0,0.0,51,0.00,,,0.00,WUHU216HW,2013-04-05 16:45:00,
2013-04-05 11:50:00,64.5,45.5,30.18,North,0,0.0,0.0,50,0.00,,,0.00,WUHU216HW,2013-04-05 16:50:00,
2013-04-05 11:55:00,64.9,45.2,30.18,North,0,0.0,0.0,49,0.00,,,0.00,WUHU216HW,2013-04-05 16:55:00,
2013-04-05 12:00:00,65.1,46.5,30.18,North,0,0.0,0.0,51,0.00,,,0.00,WUHU216HW,2013-04-05 17:00:00,
2013-04-05 12:05:00,65.1,46.5,30.18,North,0,0.0,0.0,46,0.00,,,0.00,WUHU216HW,2013-04-05 17:05:00,
2013-04-05 12:10:00,65.4,45.2,30.18,North,0,0.0,0.0,48,0.00,,,0.00,WUHU216HW,2013-04-05 17:10:00,
2013-04-05 12:15:00,66.2,45.9,30.18,North,0,0.0,0.0,48,0.00,,,0.00,WUHU216HW,2013-04-05 17:15:00,
2013-04-05 12:20:00,66.3,45.5,30.18,North,0,0.0,0.0,47,0.00,,,0.00,WUHU216HW,2013-04-05 17:20:00,
2013-04-05 12:26:00,66.3,45.5,30.18,North,0,0.0,0.0,48,0.00,,,0.00,WUHU216HW,2013-04-05 17:26:00,
2013-04-05 12:31:00,66.9,44.8,30.18,North,0,0.0,0.0,46,0.00,,,0.00,WUHU216HW,2013-04-05 17:31:00,
2013-04-05 12:36:00,67.2,45.7,30.18,North,0,0.0,0.0,46,0.00,,,0.00,WUHU216HW,2013-04-05 17:36:00,
2013-04-05 12:41:00,68.1,45.9,30.17,North,0,0.0,0.0,45,0.00,,,0.00,WUHU216HW,2013-04-05 17:41:00,
2013-04-05 12:46:00,69.0,46.1,30.17,North,0,0.0,0.0,44,0.00,,,0.00,WUHU216HW,2013-04-05 17:46:00,
2013-04-05 12:51:00,69.6,47.2,30.17,North,0,0.0,0.0,46,0.00,,,0.00,WUHU216HW,2013-04-05 17:51:00,
2013-04-05 12:56:00,69.9,46.3,30.16,North,0,0.0,0.0,43,0.00,,,0.00,WUHU216HW,2013-04-05 17:56:00,
2013-04-05 13:01:00,70.7,48.2,30.15,North,0,0.0,0.0,45,0.00,,,0.00,WUHU216HW,2013-04-05 18:01:00,
2013-04-05 13:06:00,71.2,48.6,30.15,North,0,0.0,0.0,45,0.00,,,0.00,WUHU216HW,2013-04-05 18:06:00,
2013-04-05 13:11:00,71.2,48.6,30.15,North,0,0.0,0.0,46,0.00,,,0.00,WUHU216HW,2013-04-05 18:11:00,
2013-04-05 13:16:00,71.2,48.6,30.14,North,0,0.0,0.0,43,0.00,,,0.00,WUHU216HW,2013-04-05 18:16:00,
2013-04-05 13:21:00,70.7,47.6,30.14,North,0,0.0,0.0,44,0.00,,,0.00,WUHU216HW,2013-04-05 18:21:00,
2013-04-05 13:27:00,70.5,47.4,30.14,North,0,0.0,0.0,44,0.00,,,0.00,WUHU216HW,2013-04-05 18:27:00,
2013-04-05 13:32:00,71.2,48.6,30.14,North,0,0.0,0.0,45,0.00,,,0.00,WUHU216HW,2013-04-05 18:32:00,
2013-04-05 13:37:00,71.4,47.6,30.14,North,0,0.0,0.0,43,0.00,,,0.00,WUHU216HW,2013-04-05 18:37:00,
2013-04-05 13:42:00,71.7,48.5,30.13,North,0,0.0,0.0,42,0.00,,,0.00,WUHU216HW,2013-04-05 18:42:00,
2013-04-05 13:47:00,71.6,47.2,30.13,North,0,0.0,0.0,42,0.00,,,0.00,WUHU216HW,2013-04-05 18:47:00,
2013-04-05 13:52:00,71.7,49.1,30.13,North,0,0.0,0.0,45,0.00,,,0.00,WUHU216HW,2013-04-05 18:52:00,
2013-04-05 13:57:00,71.7,49.1,30.13,North,0,0.0,0.0,45,0.00,,,0.00,WUHU216HW,2013-04-05 18:57:00,
2013-04-05 14:02:00,73.2,50.4,30.12,North,0,0.0,0.0,45,0.00,,,0.00,WUHU216HW,2013-04-05 19:02:00,
2013-04-05 14:07:00,73.2,50.4,30.12,North,0,0.0,0.0,42,0.00,,,0.00,WUHU216HW,2013-04-05 19:07:00,
2013-04-05 14:12:00,73.2,50.4,30.12,North,0,0.0,0.0,42,0.00,,,0.00,WUHU216HW,2013-04-05 19:12:00,
2013-04-05 14:59:00,75.3,50.0,30.09,North,0,0.0,0.0,40,0.00,,,0.00,WUHU216HW,2013-04-05 19:59:00,
2013-04-05 15:04:00,75.7,49.7,30.08,North,0,0.0,0.0,40,0.00,,,0.00,WUHU216HW,2013-04-05 20:04:00,
2013-04-05 15:09:00,76.6,49.8,30.08,North,0,0.0,0.0,38,0.00,,,0.00,WUHU216HW,2013-04-05 20:09:00,
2013-04-05 15:14:00,76.6,49.8,30.07,North,0,0.0,0.0,39,0.00,,,0.00,WUHU216HW,2013-04-05 20:14:00,
2013-04-05 15:19:00,76.8,49.9,30.07,North,0,0.0,0.0,38,0.00,,,0.00,WUHU216HW,2013-04-05 20:19:00,
2013-04-05 15:24:00,76.2,50.2,30.07,North,0,0.0,0.0,40,0.00,,,0.00,WUHU216HW,2013-04-05 20:24:00,
2013-04-05 15:29:00,76.4,51.0,30.07,North,0,0.0,0.0,41,0.00,,,0.00,WUHU216HW,2013-04-05 20:29:00,
2013-04-05 15:34:00,76.8,50.7,30.06,North,0,0.0,0.0,40,0.00,,,0.00,WUHU216HW,2013-04-05 20:34:00,
2013-04-05 15:39:00,77.3,49.7,30.06,North,0,0.0,0.0,38,0.00,,,0.00,WUHU216HW,2013-04-05 20:39:00,
2013-04-05 15:44:00,76.8,48.4,30.06,North,0,0.0,0.0,37,0.00,,,0.00,WUHU216HW,2013-04-05 20:44:00,
2013-04-05 15:49:00,76.6,47.5,30.06,North,0,0.0,0.0,36,0.00,,,0.00,WUHU216HW,2013-04-05 20:49:00,
2013-04-05 15:54:00,77.0,49.3,30.06,North,0,0.0,0.0,38,0.00,,,0.00,WUHU216HW,2013-04-05 20:54:00,
2013-04-05 15:59:00,76.8,48.4,30.06,North,0,0.0,0.0,36,0.00,,,0.00,WUHU216HW,2013-04-05 20:59:00,
2013-04-05 16:04:00,76.6,48.3,30.05,North,0,0.0,0.0,36,0.00,,,0.00,WUHU216HW,2013-04-05 21:04:00,
2013-04-05 16:09:00,76.6,47.5,30.05,North,0,0.0,0.0,39,0.00,,,0.00,WUHU216HW,2013-04-05 21:09:00,
2013-04-05 16:14:00,75.2,47.7,30.05,North,0,0.0,0.0,38,0.00,,,0.00,WUHU216HW,2013-04-05 21:14:00,
2013-04-05 16:19:00,75.3,50.0,30.04,North,0,0.0,0.0,41,0.00,,,0.00,WUHU216HW,2013-04-05 21:19:00,
2013-04-05 16:24:00,76.2,49.4,30.04,North,0,0.0,0.0,39,0.00,,,0.00,WUHU216HW,2013-04-05 21:24:00,
2013-04-05 16:30:00,76.2,49.4,30.04,North,0,0.0,0.0,39,0.00,,,0.00,WUHU216HW,2013-04-05 21:30:00,
2013-04-05 16:40:00,77.9,49.4,30.04,North,0,0.0,0.0,37,0.00,,,0.00,WUHU216HW,2013-04-05 21:40:00,
2013-04-05 16:45:00,78.4,50.6,30.04,North,0,0.0,0.0,38,0.00,,,0.00,WUHU216HW,2013-04-05 21:45:00,
2013-04-05 16:50:00,78.4,50.6,30.04,North,0,0.0,0.0,38,0.00,,,0.00,WUHU216HW,2013-04-05 21:50:00,
2013-04-05 16:55:00,78.0,49.5,30.03,North,0,0.0,0.0,37,0.00,,,0.00,WUHU216HW,2013-04-05 21:55:00,
2013-04-05 17:00:00,77.5,49.1,30.03,North,0,0.0,0.0,37,0.00,,,0.00,WUHU216HW,2013-04-05 22:00:00,
2013-04-05 17:05:00,76.8,47.7,30.03,North,0,0.0,0.0,36,0.00,,,0.00,WUHU216HW,2013-04-05 22:05:00,
2013-04-05 17:10:00,76.6,46.0,30.03,North,0,0.0,0.0,34,0.00,,,0.00,WUHU216HW,2013-04-05 22:10:00,
2013-04-05 17:15:00,76.1,50.0,30.03,North,0,0.0,0.0,40,0.00,,,0.00,WUHU216HW,2013-04-05 22:15:00,
2013-04-05 17:20:00,76.1,47.0,30.03,North,0,0.0,0.0,36,0.00,,,0.00,WUHU216HW,2013-04-05 22:20:00,
2013-04-05 17:25:00,75.7,47.5,30.02,North,0,0.0,0.0,38,0.00,,,0.00,WUHU216HW,2013-04-05 22:25:00,
2013-04-05 17:30:00,75.9,47.6,30.02,North,0,0.0,0.0,37,0.00,,,0.00,WUHU216HW,2013-04-05 22:30:00,
2013-04-05 17:35:00,75.7,48.2,30.02,North,0,0.0,0.0,38,0.00,,,0.00,WUHU216HW,2013-04-05 22:35:00,
2013-04-05 17:40:00,75.5,47.3,30.02,North,0,0.0,0.0,37,0.00,,,0.00,WUHU216HW,2013-04-05 22:40:00,
2013-04-05 17:45:00,75.3,47.1,30.02,North,0,0.0,0.0,38,0.00,,,0.00,WUHU216HW,2013-04-05 22:45:00,
2013-04-05 17:50:00,74.8,47.4,30.02,North,0,0.0,0.0,38,0.00,,,0.00,WUHU216HW,2013-04-05 22:50:00,
2013-04-05 17:55:00,74.1,48.3,30.02,North,0,0.0,0.0,40,0.00,,,0.00,WUHU216HW,2013-04-05 22:55:00,
2013-04-05 18:00:00,73.2,48.6,30.02,North,0,0.0,0.0,42,0.00,,,0.00,WUHU216HW,2013-04-05 23:00:00,
2013-04-05 18:05:00,73.0,47.9,30.02,North,0,0.0,0.0,42,0.00,,,0.00,WUHU216HW,2013-04-05 23:05:00,
2013-04-05 18:10:00,72.6,48.2,30.02,North,0,0.0,0.0,41,0.00,,,0.00,WUHU216HW,2013-04-05 23:10:00,
2013-04-05 18:15:00,72.1,47.7,30.01,North,0,0.0,0.0,42,0.00,,,0.00,WUHU216HW,2013-04-05 23:15:00,
2013-04-05 18:21:00,71.9,48.1,30.01,North,0,0.0,0.0,43,0.00,,,0.00,WUHU216HW,2013-04-05 23:21:00,
2013-04-05 18:26:00,71.6,47.8,30.02,North,0,0.0,0.0,43,0.00,,,0.00,WUHU216HW,2013-04-05 23:26:00,
2013-04-05 18:31:00,71.0,47.9,30.01,North,0,0.0,0.0,44,0.00,,,0.00,WUHU216HW,2013-04-05 23:31:00,
2013-04-05 18:36:00,70.3,47.8,30.02,North,0,0.0,0.0,45,0.00,,,0.00,WUHU216HW,2013-04-05 23:36:00,
2013-04-05 18:41:00,69.9,48.7,30.02,North,0,0.0,0.0,47,0.00,,,0.00,WUHU216HW,2013-04-05 23:41:00,
2013-04-05 18:46:00,69.6,48.4,30.02,North,0,0.0,0.0,47,0.00,,,0.00,WUHU216HW,2013-04-05 23:46:00,
2013-04-05 18:51:00,69.4,48.8,30.02,North,0,0.0,0.0,48,0.00,,,0.00,WUHU216HW,2013-04-05 23:51:00,
2013-04-05 18:56:00,68.7,48.7,30.02,North,0,0.0,0.0,49,0.00,,,0.00,WUHU216HW,2013-04-05 23:56:00,
2013-04-05 19:01:00,68.3,48.4,30.01,North,0,0.0,0.0,49,0.00,,,0.00,WUHU216HW,2013-04-06 00:01:00,
2013-04-05 19:06:00,68.1,48.3,30.01,North,0,0.0,0.0,49,0.00,,,0.00,WUHU216HW,2013-04-06 00:06:00,
2013-04-05 19:11:00,68.0,48.1,30.02,North,0,0.0,0.0,49,0.00,,,0.00,WUHU216HW,2013-04-06 00:11:00,
2013-04-05 19:16:00,67.8,48.5,30.01,North,0,0.0,0.0,50,0.00,,,0.00,WUHU216HW,2013-04-06 00:16:00,
2013-04-05 19:22:00,67.6,48.4,30.02,North,0,0.0,0.0,50,0.00,,,0.00,WUHU216HW,2013-04-06 00:22:00,
2013-04-05 19:27:00,67.1,48.4,30.02,North,0,0.0,0.0,51,0.00,,,0.00,WUHU216HW,2013-04-06 00:27:00,
2013-04-05 19:32:00,66.7,48.5,30.02,North,0,0.0,0.0,52,0.00,,,0.00,WUHU216HW,2013-04-06 00:32:00,
2013-04-05 19:37:00,66.5,48.4,30.02,North,0,0.0,0.0,52,0.00,,,0.00,WUHU216HW,2013-04-06 00:37:00,
2013-04-05 19:42:00,66.0,47.9,30.02,North,0,0.0,0.0,52,0.00,,,0.00,WUHU216HW,2013-04-06 00:42:00,
2013-04-05 19:47:00,66.0,47.9,30.02,North,0,0.0,0.0,52,0.00,,,0.00,WUHU216HW,2013-04-06 00:47:00,
2013-04-05 19:59:00,64.7,48.1,30.02,North,0,0.0,0.0,55,0.00,,,0.00,WUHU216HW,2013-04-06 00:59:00,